Time;durP1;ratioP1;P1;durP2;ratioP2;P2;SDS_P1;SDS_P2;PMS_P1;PMS_P2;Temp;Humidity;BMP_temperature;BMP_pressure;BME280_temperature;BME280_humidity;BME280_pressure;Samples;Min_cycle;Max_cycle;Signal;HPM_P1;HPM_P2
2021/04/06 00:01:17;;;;;;;34.53;14.57;;;1.80;99.90;;;;;;4156733;28;20278;-63
2021/04/06 00:03:22;;;;;;;31.20;14.10;;;1.80;99.90;;;;;;4157803;28;20686;-63
2021/04/06 00:05:24;;;;;;;34.53;16.10;;;1.80;99.90;;;;;;4156952;28;20316;-62
2021/04/06 00:07:27;;;;;;;33.43;15.30;;;1.70;99.90;;;;;;4158138;28;20320;-64
2021/04/06 00:09:31;;;;;;;36.40;15.03;;;1.70;99.90;;;;;;4157109;28;20290;-62
2021/04/06 00:11:33;;;;;;;32.40;15.87;;;1.70;99.90;;;;;;4158069;28;20266;-63
2021/04/06 00:13:36;;;;;;;31.30;15.40;;;1.70;99.90;;;;;;4157323;28;20271;-64
2021/04/06 00:15:40;;;;;;;37.47;15.93;;;1.70;99.90;;;;;;4157057;28;20834;-64
2021/04/06 00:17:45;;;;;;;34.63;15.43;;;1.70;99.90;;;;;;4156491;28;20305;-63
2021/04/06 00:19:47;;;;;;;31.17;15.17;;;1.70;99.90;;;;;;4157722;28;20654;-63
2021/04/06 00:21:51;;;;;;;27.70;15.07;;;1.70;99.90;;;;;;4157413;28;20278;-63
2021/04/06 00:23:54;;;;;;;29.73;14.57;;;1.60;99.90;;;;;;4157461;28;20275;-64
2021/04/06 00:25:56;;;;;;;30.37;15.20;;;1.60;99.90;;;;;;4156973;28;20409;-64
2021/04/06 00:27:58;;;;;;;29.17;14.87;;;1.60;99.90;;;;;;4157193;28;20321;-64
2021/04/06 00:30:11;;;;;;;27.60;13.90;;;1.60;99.90;;;;;;4157208;28;20409;-63
2021/04/06 00:32:15;;;;;;;30.97;14.17;;;1.60;99.90;;;;;;4156886;28;20690;-63
2021/04/06 00:34:18;;;;;;;27.17;13.97;;;1.60;99.90;;;;;;4157442;28;20727;-64
2021/04/06 00:36:26;;;;;;;26.47;13.33;;;1.60;99.90;;;;;;4157057;28;20271;-63
2021/04/06 00:38:31;;;;;;;31.40;13.90;;;1.60;99.90;;;;;;4156661;28;20336;-63
2021/04/06 00:40:37;;;;;;;28.67;12.40;;;1.60;99.90;;;;;;4157287;28;20853;-62
2021/04/06 00:42:40;;;;;;;27.63;12.57;;;1.60;99.90;;;;;;4156916;28;20838;-65
2021/04/06 00:44:48;;;;;;;25.53;12.50;;;1.60;99.90;;;;;;4156511;28;20266;-65
2021/04/06 00:46:50;;;;;;;23.73;12.63;;;1.60;99.90;;;;;;4156875;28;20274;-63
2021/04/06 00:48:55;;;;;;;25.73;12.43;;;1.50;99.90;;;;;;4156487;28;20259;-64
2021/04/06 00:51:07;;;;;;;23.57;12.40;;;1.50;99.90;;;;;;4157377;28;20301;-64
2021/04/06 00:53:08;;;;;;;30.03;15.73;;;1.50;99.90;;;;;;4156403;28;20282;-63
2021/04/06 00:55:37;;;;;;;25.93;11.87;;;1.50;99.90;;;;;;4156920;28;20282;-65
2021/04/06 00:57:41;;;;;;;22.20;11.33;;;1.50;99.90;;;;;;4155764;28;21149;-63
2021/04/06 01:00:20;;;;;;;21.83;11.23;;;1.50;99.90;;;;;;4157072;28;20341;-63
2021/04/06 01:02:21;;;;;;;23.47;12.47;;;1.50;99.90;;;;;;4156344;28;20270;-64
2021/04/06 01:04:26;;;;;;;23.57;12.00;;;1.50;99.90;;;;;;4156797;28;20661;-65
2021/04/06 01:06:27;;;;;;;23.37;11.83;;;1.50;99.90;;;;;;4156367;28;20321;-66
2021/04/06 01:08:31;;;;;;;23.23;11.10;;;1.50;99.90;;;;;;4156924;28;20746;-63
2021/04/06 01:10:33;;;;;;;20.97;11.33;;;1.50;99.90;;;;;;4156044;28;20843;-63
2021/04/06 01:21:27;;;;;;;24.37;11.83;;;1.40;99.90;;;;;;4157395;28;20341;-63
2021/04/06 01:23:28;;;;;;;22.37;11.00;;;1.40;99.90;;;;;;4156076;28;20320;-65
2021/04/06 01:25:33;;;;;;;18.27;9.67;;;1.40;99.90;;;;;;4156921;28;20274;-63
2021/04/06 01:27:34;;;;;;;24.53;12.30;;;1.40;99.90;;;;;;4155852;28;20313;-63
2021/04/06 01:29:36;;;;;;;24.10;11.60;;;1.40;99.90;;;;;;4156700;28;20271;-62
2021/04/06 01:31:38;;;;;;;24.73;11.80;;;1.20;99.90;;;;;;4157033;28;21067;-63
2021/04/06 01:33:42;;;;;;;24.03;12.07;;;1.20;99.90;;;;;;4158678;28;20349;-63
2021/04/06 01:35:54;;;;;;;28.00;12.10;;;1.10;99.90;;;;;;4155529;28;20325;-64
2021/04/06 01:37:59;;;;;;;26.93;13.03;;;1.20;99.90;;;;;;4156398;28;20275;-63
2021/04/06 01:40:02;;;;;;;27.63;12.90;;;1.20;99.90;;;;;;4156377;28;20313;-65
2021/04/06 01:42:08;;;;;;;21.87;10.30;;;1.20;99.90;;;;;;4156347;28;20267;-63
2021/04/06 01:44:09;;;;;;;21.00;11.00;;;1.20;99.90;;;;;;4155704;28;20328;-63
2021/04/06 01:48:16;;;;;;;18.93;10.53;;;1.20;99.90;;;;;;4154131;28;20372;-63
2021/04/06 01:50:18;;;;;;;20.33;10.90;;;1.20;99.90;;;;;;4155271;28;20352;-63
2021/04/06 01:52:19;;;;;;;26.13;11.47;;;1.20;99.90;;;;;;4155510;28;20275;-63
2021/04/06 01:54:21;;;;;;;22.93;11.43;;;1.20;99.90;;;;;;4155229;28;20274;-63
2021/04/06 01:56:31;;;;;;;21.50;10.33;;;1.30;99.90;;;;;;4154900;28;20317;-63
2021/04/06 01:58:34;;;;;;;19.30;9.50;;;1.20;99.90;;;;;;4154932;28;20332;-63
2021/04/06 02:02:39;;;;;;;18.80;8.97;;;1.10;99.90;;;;;;4155219;28;20266;-63
2021/04/06 02:04:43;;;;;;;25.07;12.60;;;1.10;99.90;;;;;;4156006;28;20726;-62
2021/04/06 02:06:45;;;;;;;25.93;12.77;;;1.10;99.90;;;;;;4154180;28;20274;-63
2021/04/06 02:08:49;;;;;;;23.80;12.63;;;1.00;99.90;;;;;;4156193;28;20274;-63
2021/04/06 02:10:51;;;;;;;24.37;12.90;;;0.90;99.90;;;;;;4154739;28;20385;-61
2021/04/06 02:12:52;;;;;;;22.83;12.50;;;0.80;99.90;;;;;;4155958;28;20279;-62
2021/04/06 02:14:58;;;;;;;23.70;12.53;;;0.70;99.90;;;;;;4154907;28;20274;-61
2021/04/06 02:17:06;;;;;;;25.07;13.43;;;0.60;99.90;;;;;;4155997;28;20274;-62
2021/04/06 02:19:07;;;;;;;25.83;12.50;;;0.50;99.90;;;;;;4154914;28;20275;-63
2021/04/06 02:21:08;;;;;;;25.00;13.87;;;0.40;99.90;;;;;;4156031;28;20655;-63
2021/04/06 02:23:09;;;;;;;24.70;13.77;;;0.30;99.90;;;;;;4155785;28;20317;-63
2021/04/06 02:25:16;;;;;;;24.43;12.70;;;0.30;99.90;;;;;;4155691;28;20585;-62
2021/04/06 02:27:26;;;;;;;27.53;12.97;;;0.30;99.90;;;;;;4155298;28;20317;-62
2021/04/06 02:29:28;;;;;;;25.70;14.50;;;0.20;99.90;;;;;;4156050;28;20301;-62
2021/04/06 02:31:29;;;;;;;27.17;13.43;;;0.20;99.90;;;;;;4155302;28;20291;-62
2021/04/06 02:33:36;;;;;;;36.13;17.43;;;0.20;99.90;;;;;;4155613;28;20295;-62
2021/04/06 02:35:37;;;;;;;40.20;17.33;;;0.10;99.90;;;;;;4154545;28;20278;-62
2021/04/06 02:37:42;;;;;;;31.80;16.53;;;0.10;99.90;;;;;;4155863;28;20676;-62
2021/04/06 02:39:45;;;;;;;40.97;17.73;;;0.00;99.90;;;;;;4155426;28;20267;-62
2021/04/06 02:41:46;;;;;;;37.87;17.37;;;0.00;99.90;;;;;;4155351;28;20270;-63
2021/04/06 02:43:51;;;;;;;32.87;16.97;;;-0.10;99.90;;;;;;4155714;28;21112;-62
2021/04/06 02:45:52;;;;;;;30.93;15.93;;;-0.20;99.90;;;;;;4155054;28;20670;-63
2021/04/06 02:48:02;;;;;;;34.57;15.87;;;-0.20;99.90;;;;;;4155763;28;20313;-63
2021/04/06 02:50:09;;;;;;;28.75;15.85;;;-0.20;99.90;;;;;;4154684;28;20302;-62
2021/04/06 02:52:12;;;;;;;33.80;17.67;;;-0.20;99.90;;;;;;4155885;28;20025;-63
2021/04/06 02:54:14;;;;;;;36.67;17.90;;;-0.20;99.90;;;;;;4155346;28;20328;-62
2021/04/06 02:56:35;;;;;;;35.23;17.43;;;-0.20;99.90;;;;;;4156478;28;20333;-63
2021/04/06 02:58:39;;;;;;;39.47;18.57;;;-0.30;99.90;;;;;;4165860;28;20327;-62
2021/04/06 03:00:40;;;;;;;41.20;19.13;;;-0.20;99.90;;;;;;4172390;28;20339;-61
2021/04/06 03:02:42;;;;;;;36.33;18.30;;;-0.30;99.90;;;;;;4171155;28;20672;-62
2021/04/06 03:04:44;;;;;;;42.63;19.63;;;-0.20;99.90;;;;;;4172149;28;20270;-63
2021/04/06 03:06:45;;;;;;;37.60;17.40;;;-0.20;99.90;;;;;;4171372;28;20270;-63
2021/04/06 03:08:46;;;;;;;48.07;19.10;;;-0.20;99.90;;;;;;4173203;28;20274;-62
2021/04/06 03:10:54;;;;;;;37.60;18.80;;;-0.30;99.90;;;;;;4174455;28;20366;-62
2021/04/06 03:12:57;;;;;;;43.80;18.77;;;-0.30;99.90;;;;;;4175696;28;20266;-64
2021/04/06 03:15:03;;;;;;;33.57;17.77;;;-0.30;99.90;;;;;;4174971;28;20911;-63
2021/04/06 03:17:04;;;;;;;42.47;19.30;;;-0.30;99.90;;;;;;4174445;28;20305;-64
2021/04/06 03:19:06;;;;;;;42.50;21.00;;;-0.30;99.90;;;;;;4174212;28;20320;-63
2021/04/06 03:21:11;;;;;;;42.97;19.77;;;-0.30;99.90;;;;;;4174304;28;20800;-61
2021/04/06 03:23:13;;;;;;;46.73;21.07;;;-0.30;99.90;;;;;;4142234;28;20767;-63
2021/04/06 03:25:14;;;;;;;46.20;20.60;;;-0.30;99.90;;;;;;4142463;28;20314;-63
2021/04/06 03:27:25;;;;;;;45.63;20.53;;;-0.30;99.90;;;;;;4143112;28;20735;-64
2021/04/06 03:29:28;;;;;;;35.50;19.67;;;-0.40;99.90;;;;;;4141771;28;20268;-63
2021/04/06 03:31:32;;;;;;;45.37;19.13;;;-0.30;99.90;;;;;;4152958;28;20286;-63
2021/04/06 03:33:34;;;;;;;41.50;18.37;;;-0.20;99.90;;;;;;4157693;28;20286;-61
2021/04/06 03:35:36;;;;;;;39.87;18.13;;;-0.20;99.90;;;;;;4158071;28;20337;-65
2021/04/06 03:37:39;;;;;;;40.20;18.53;;;-0.20;99.90;;;;;;4157818;28;20776;-66
2021/04/06 03:39:40;;;;;;;39.93;17.90;;;-0.20;99.90;;;;;;4157782;28;20312;-63
2021/04/06 03:41:41;;;;;;;39.17;20.27;;;-0.20;99.90;;;;;;4157425;28;20809;-63
2021/04/06 03:43:42;;;;;;;38.40;20.27;;;-0.20;99.90;;;;;;4158321;28;20271;-64
2021/04/06 03:45:56;;;;;;;40.10;19.10;;;-0.30;99.90;;;;;;4156848;28;20336;-63
2021/04/06 03:47:59;;;;;;;37.80;19.27;;;-0.40;99.90;;;;;;4158257;28;20333;-62
2021/04/06 03:50:00;;;;;;;36.73;19.20;;;-0.40;99.90;;;;;;4156651;28;20271;-62
2021/04/06 03:52:07;;;;;;;36.47;17.30;;;-0.40;99.90;;;;;;4158174;28;20759;-62
2021/04/06 03:54:08;;;;;;;33.30;18.77;;;-0.40;99.90;;;;;;4156852;28;20262;-62
2021/04/06 03:56:12;;;;;;;37.40;18.80;;;-0.40;99.90;;;;;;4157798;28;20789;-62
2021/04/06 03:58:21;;;;;;;35.97;19.07;;;-0.30;99.90;;;;;;4157845;28;20274;-62
2021/04/06 04:00:23;;;;;;;35.07;18.73;;;-0.20;99.90;;;;;;4157177;28;20337;-62
2021/04/06 04:02:24;;;;;;;37.77;18.80;;;-0.20;99.90;;;;;;4156955;28;20726;-63
2021/04/06 04:04:25;;;;;;;35.33;18.17;;;-0.10;99.90;;;;;;4156333;28;20267;-63
2021/04/06 04:06:28;;;;;;;33.90;18.90;;;0.00;99.90;;;;;;4156392;28;20270;-62
2021/04/06 04:08:30;;;;;;;34.23;18.27;;;0.10;99.90;;;;;;4156819;28;20674;-62
2021/04/06 04:10:31;;;;;;;42.33;20.20;;;0.20;99.90;;;;;;4156600;28;20302;-62
2021/04/06 04:12:32;;;;;;;45.87;20.70;;;0.20;99.90;;;;;;4156811;28;20400;-62
2021/04/06 04:14:33;;;;;;;52.30;21.67;;;0.20;99.90;;;;;;4156676;28;21067;-63
2021/04/06 04:16:36;;;;;;;45.97;20.47;;;0.30;99.90;;;;;;4156798;28;20324;-62
2021/04/06 04:18:38;;;;;;;56.50;22.43;;;0.30;99.90;;;;;;4158155;28;20337;-62
2021/04/06 04:20:39;;;;;;;46.83;19.77;;;0.40;99.90;;;;;;4156391;28;20278;-61
2021/04/06 04:22:40;;;;;;;42.83;17.90;;;0.50;99.90;;;;;;4157059;28;20290;-61
2021/04/06 04:24:41;;;;;;;42.50;16.70;;;0.50;99.90;;;;;;4156386;28;20332;-60
2021/04/06 04:26:42;;;;;;;35.13;16.27;;;0.70;99.90;;;;;;4157125;28;20328;-63
2021/04/06 04:28:43;;;;;;;35.60;16.60;;;0.90;99.90;;;;;;4156582;28;20270;-63
2021/04/06 04:30:49;;;;;;;40.90;15.37;;;1.00;99.90;;;;;;4157227;28;20758;-62
2021/04/06 04:32:51;;;;;;;40.30;15.30;;;1.20;99.90;;;;;;4156554;28;20275;-63
2021/04/06 04:34:52;;;;;;;39.73;17.73;;;1.40;99.90;;;;;;4156861;28;20666;-62
2021/04/06 04:36:53;;;;;;;27.33;13.37;;;1.60;99.90;;;;;;4157046;28;20263;-64
2021/04/06 04:38:54;;;;;;;30.83;14.10;;;1.60;99.90;;;;;;4156896;28;20301;-64
2021/04/06 04:40:55;;;;;;;33.60;15.27;;;1.60;99.90;;;;;;4156386;28;20758;-64
2021/04/06 04:42:56;;;;;;;37.70;15.07;;;1.80;99.90;;;;;;4155979;28;20288;-62
2021/04/06 04:44:58;;;;;;;38.50;13.60;;;1.90;99.90;;;;;;4156053;28;20800;-63
2021/04/06 04:46:59;;;;;;;43.90;16.50;;;2.10;99.90;;;;;;4155820;28;20259;-64
2021/04/06 04:49:00;;;;;;;35.43;16.03;;;2.10;99.90;;;;;;4156250;28;20290;-63
2021/04/06 04:51:02;;;;;;;44.63;19.13;;;2.10;99.90;;;;;;4154166;28;20291;-62
2021/04/06 04:53:03;;;;;;;42.03;17.97;;;2.30;99.90;;;;;;4156618;28;20379;-62
2021/04/06 04:55:05;;;;;;;43.67;19.50;;;2.30;99.90;;;;;;4154217;28;20361;-62
2021/04/06 04:57:07;;;;;;;47.87;17.93;;;2.30;99.90;;;;;;4156746;28;20360;-62
2021/04/06 04:59:08;;;;;;;44.17;16.60;;;2.30;99.90;;;;;;4155928;28;20271;-62
2021/04/06 05:01:10;;;;;;;38.97;17.60;;;2.40;99.90;;;;;;4155789;28;20278;-62
2021/04/06 05:03:11;;;;;;;57.70;19.43;;;2.60;99.90;;;;;;4155717;28;20612;-62
2021/04/06 05:05:15;;;;;;;55.70;19.80;;;3.10;99.90;;;;;;4155824;28;20325;-64
2021/04/06 05:07:16;;;;;;;51.10;20.57;;;3.50;99.90;;;;;;4154643;28;20636;-64
2021/04/06 05:09:17;;;;;;;44.27;19.57;;;3.90;99.90;;;;;;4156618;28;20298;-65
2021/04/06 05:11:18;;;;;;;38.10;17.33;;;4.10;99.90;;;;;;4156098;28;20299;-61
2021/04/06 05:13:19;;;;;;;50.93;17.83;;;4.20;99.90;;;;;;4155772;28;20349;-64
2021/04/06 05:15:20;;;;;;;50.20;18.40;;;4.20;99.90;;;;;;4156488;28;21085;-62
2021/04/06 05:17:23;;;;;;;54.03;19.67;;;4.30;99.90;;;;;;4155274;28;20693;-61
2021/04/06 05:19:25;;;;;;;58.93;20.40;;;4.20;99.90;;;;;;4156828;28;20324;-62
2021/04/06 05:21:26;;;;;;;103.93;22.63;;;4.20;99.90;;;;;;4155934;28;20294;-61
2021/04/06 05:23:27;;;;;;;63.40;22.23;;;4.00;99.90;;;;;;4155937;28;20263;-62
2021/04/06 05:25:28;;;;;;;73.73;23.37;;;3.90;99.90;;;;;;4153828;28;20988;-62
2021/04/06 05:27:29;;;;;;;68.10;25.33;;;3.70;99.90;;;;;;4156535;28;20270;-62
2021/04/06 05:29:30;;;;;;;66.53;25.77;;;3.40;99.90;;;;;;4153613;28;20275;-62
2021/04/06 05:31:32;;;;;;;64.07;23.50;;;3.10;99.90;;;;;;4154835;28;20356;-63
2021/04/06 05:33:33;;;;;;;63.70;24.20;;;3.00;99.90;;;;;;4155486;28;20282;-62
2021/04/06 05:35:34;;;;;;;54.53;22.83;;;2.90;99.90;;;;;;4156033;28;20266;-63
2021/04/06 05:37:35;;;;;;;57.33;21.50;;;2.80;99.90;;;;;;4155056;28;20275;-66
2021/04/06 05:39:36;;;;;;;48.87;20.33;;;2.70;99.90;;;;;;4144347;28;20742;-63
2021/04/06 05:41:45;;;;;;;34.97;17.93;;;2.80;99.90;;;;;;4139382;28;20268;-65
2021/04/06 05:43:47;;;;;;;36.30;19.47;;;2.60;99.90;;;;;;4139051;28;20267;-62
2021/04/06 05:45:54;;;;;;;45.33;19.77;;;2.40;99.90;;;;;;4140112;28;20271;-64
2021/04/06 05:47:57;;;;;;;40.87;18.50;;;2.30;99.90;;;;;;4139080;28;20333;-64
2021/04/06 05:50:00;;;;;;;37.77;18.43;;;2.30;99.90;;;;;;4139477;28;20271;-66
2021/04/06 05:52:01;;;;;;;35.43;18.30;;;2.30;99.90;;;;;;4138861;28;20712;-65
2021/04/06 05:54:03;;;;;;;37.43;19.73;;;2.30;99.90;;;;;;4139114;28;20275;-63
2021/04/06 05:56:04;;;;;;;42.43;19.70;;;2.30;99.90;;;;;;4139305;28;20302;-64
2021/04/06 05:58:06;;;;;;;39.53;19.73;;;2.30;99.90;;;;;;4139574;28;20271;-65
2021/04/06 06:00:09;;;;;;;39.17;19.67;;;2.30;99.90;;;;;;4138905;28;20279;-64
2021/04/06 06:02:11;;;;;;;42.27;20.30;;;2.50;99.90;;;;;;4140061;28;20279;-65
2021/04/06 06:04:15;;;;;;;40.83;19.83;;;2.60;99.90;;;;;;4138768;28;20695;-65
2021/04/06 06:06:16;;;;;;;38.97;19.60;;;2.60;99.90;;;;;;4140980;28;20920;-63
2021/04/06 06:08:18;;;;;;;43.00;19.83;;;2.60;99.90;;;;;;4149757;28;20329;-65
2021/04/06 06:10:27;;;;;;;39.27;18.93;;;2.50;99.90;;;;;;4153872;28;20340;-63
2021/04/06 06:12:29;;;;;;;34.23;19.17;;;2.50;99.90;;;;;;4154881;28;20283;-63
2021/04/06 06:14:41;;;;;;;35.73;19.10;;;2.70;99.90;;;;;;4153801;28;20271;-62
2021/04/06 06:16:42;;;;;;;42.00;19.43;;;2.90;99.90;;;;;;4153685;28;20263;-63
2021/04/06 06:19:01;;;;;;;38.50;18.73;;;3.00;99.90;;;;;;4155829;28;20340;-63
2021/04/06 06:21:03;;;;;;;34.70;18.20;;;3.10;99.90;;;;;;4154658;28;20262;-63
2021/04/06 06:23:23;;;;;;;38.10;18.87;;;3.10;99.90;;;;;;4155779;28;20420;-63
2021/04/06 06:25:24;;;;;;;37.20;17.88;;;3.30;99.90;;;;;;4155150;28;20259;-65
2021/04/06 06:27:44;;;;;;;32.57;17.83;;;3.50;99.90;;;;;;4155321;28;20631;-62
2021/04/06 06:29:45;;;;;;;34.00;16.85;;;3.80;99.90;;;;;;4154679;28;20328;-62
2021/04/06 06:31:49;;;;;;;29.60;15.53;;;4.00;99.90;;;;;;4155461;28;20107;-62
2021/04/06 06:33:50;;;;;;;32.57;15.77;;;4.50;99.90;;;;;;4154414;28;20316;-61
2021/04/06 06:35:53;;;;;;;29.97;15.10;;;4.90;99.90;;;;;;4154853;28;20635;-62
2021/04/06 06:37:54;;;;;;;25.17;14.30;;;5.30;99.90;;;;;;4153226;28;20747;-62
2021/04/06 06:39:56;;;;;;;26.37;14.37;;;5.50;99.90;;;;;;4155213;28;20274;-62
2021/04/06 06:42:06;;;;;;;26.43;13.80;;;5.50;99.90;;;;;;4154078;28;20337;-62
2021/04/06 06:44:08;;;;;;;28.50;14.77;;;5.30;99.90;;;;;;4158795;28;20669;-64
2021/04/06 06:46:24;;;;;;;29.60;13.83;;;5.00;99.90;;;;;;4157463;28;20763;-62
2021/04/06 06:48:34;;;;;;;31.83;15.60;;;4.80;99.90;;;;;;4158605;28;20316;-62
2021/04/06 06:50:47;;;;;;;26.57;14.47;;;4.70;99.90;;;;;;4158971;28;20681;-63
2021/04/06 06:52:53;;;;;;;26.23;14.10;;;4.80;99.90;;;;;;4157806;28;20812;-61
2021/04/06 06:55:16;;;;;;;28.20;15.90;;;4.80;99.90;;;;;;4158225;28;20852;-62
2021/04/06 06:57:17;;;;;;;26.37;14.60;;;4.90;99.90;;;;;;4157768;28;20325;-62
2021/04/06 06:59:18;;;;;;;25.53;13.50;;;4.90;99.90;;;;;;4159012;28;20321;-62
2021/04/06 07:01:24;;;;;;;28.37;13.03;;;4.90;99.90;;;;;;4158952;28;20275;-62
2021/04/06 07:03:26;;;;;;;25.33;13.37;;;4.80;99.90;;;;;;4156952;28;20267;-62
2021/04/06 07:05:29;;;;;;;28.03;14.27;;;4.80;99.90;;;;;;4156719;28;21126;-62
2021/04/06 07:07:30;;;;;;;20.77;12.67;;;4.90;99.90;;;;;;4157457;28;20364;-62
2021/04/06 07:09:32;;;;;;;23.17;12.97;;;5.00;99.90;;;;;;4156938;28;20769;-62
2021/04/06 07:11:33;;;;;;;22.30;13.27;;;5.00;99.90;;;;;;4158242;28;20340;-62
2021/04/06 07:13:36;;;;;;;31.47;13.83;;;5.00;99.90;;;;;;4156935;28;20634;-61
2021/04/06 07:15:39;;;;;;;24.10;14.33;;;4.90;99.90;;;;;;4158425;28;21202;-62
2021/04/06 07:17:44;;;;;;;27.40;13.70;;;4.80;99.90;;;;;;4157458;28;20670;-63
2021/04/06 07:19:45;;;;;;;24.93;13.23;;;4.80;99.90;;;;;;4158000;28;20336;-62
2021/04/06 07:21:50;;;;;;;22.07;12.27;;;4.90;99.90;;;;;;4157192;28;20289;-62
2021/04/06 07:24:04;;;;;;;24.17;11.30;;;5.00;99.90;;;;;;4157737;28;20340;-63
2021/04/06 07:26:17;;;;;;;24.87;12.17;;;5.10;99.90;;;;;;4156843;28;20333;-63
2021/04/06 07:28:19;;;;;;;22.33;12.83;;;5.20;99.90;;;;;;4158021;28;20337;-62
2021/04/06 07:30:21;;;;;;;24.97;13.93;;;5.20;99.90;;;;;;4157671;28;20254;-62
2021/04/06 07:32:22;;;;;;;28.57;13.03;;;5.30;99.90;;;;;;4157667;28;21089;-62
2021/04/06 07:34:24;;;;;;;26.43;14.17;;;5.40;99.90;;;;;;4158101;28;20737;-63
2021/04/06 07:36:26;;;;;;;27.53;13.27;;;5.50;99.90;;;;;;4158225;28;20316;-63
2021/04/06 07:38:28;;;;;;;27.33;13.93;;;5.50;99.90;;;;;;4157716;28;20282;-62
2021/04/06 07:40:32;;;;;;;22.30;12.30;;;5.60;99.90;;;;;;4157923;28;21071;-61
2021/04/06 07:42:33;;;;;;;25.73;12.53;;;5.80;99.90;;;;;;4158152;28;20274;-62
2021/04/06 07:44:36;;;;;;;23.10;12.70;;;6.00;99.90;;;;;;4157845;28;20275;-61
2021/04/06 07:46:44;;;;;;;25.37;12.53;;;6.10;99.90;;;;;;4157722;28;20345;-61
2021/04/06 07:48:50;;;;;;;20.30;12.40;;;6.20;99.90;;;;;;4158057;28;20282;-62
2021/04/06 07:50:51;;;;;;;25.73;12.47;;;6.20;99.90;;;;;;4157730;28;20254;-62
2021/04/06 07:53:21;;;;;;;27.40;12.83;;;6.40;99.90;;;;;;4157567;28;20364;-61
2021/04/06 07:55:42;;;;;;;20.20;12.00;;;6.50;99.90;;;;;;4157056;28;20262;-61
2021/04/06 07:57:48;;;;;;;31.73;12.52;;;6.70;99.90;;;;;;4157811;28;20027;-63
2021/04/06 07:59:52;;;;;;;27.83;13.33;;;6.90;99.90;;;;;;4157826;28;20528;-62
2021/04/06 08:01:56;;;;;;;23.13;12.23;;;7.00;99.90;;;;;;4157478;28;20270;-63
2021/04/06 08:04:03;;;;;;;25.40;12.53;;;7.10;99.90;;;;;;4157596;28;21231;-63
2021/04/06 08:06:28;;;;;;;22.03;11.20;;;7.10;99.90;;;;;;4156964;28;20663;-61
2021/04/06 08:08:35;;;;;;;23.20;11.67;;;7.10;99.90;;;;;;4151040;28;20041;-61
2021/04/06 08:10:36;;;;;;;26.90;12.10;;;7.10;99.90;;;;;;4156875;28;20103;-62
2021/04/06 08:12:38;;;;;;;28.37;13.33;;;7.10;99.90;;;;;;4157006;28;20049;-61
2021/04/06 08:14:49;;;;;;;27.63;13.30;;;7.20;99.90;;;;;;4156890;28;20151;-62
2021/04/06 08:17:25;;;;;;;25.83;12.07;;;7.20;99.90;;;;;;4156997;28;20047;-64
2021/04/06 08:19:30;;;;;;;19.30;10.47;;;7.30;99.90;;;;;;4157555;28;20083;-61
2021/04/06 08:21:31;;;;;;;22.87;10.63;;;7.40;99.90;;;;;;4156684;28;20103;-61
2021/04/06 08:23:40;;;;;;;28.77;11.10;;;7.50;99.90;;;;;;4156771;28;20033;-63
2021/04/06 08:25:46;;;;;;;19.37;10.20;;;7.60;99.90;;;;;;4155272;28;20049;-64
2021/04/06 08:27:55;;;;;;;20.80;10.10;;;7.60;99.90;;;;;;4157251;28;20033;-62
2021/04/06 08:30:26;;;;;;;18.53;9.50;;;7.60;99.90;;;;;;4157251;28;20045;-62
2021/04/06 08:32:27;;;;;;;19.40;10.40;;;7.70;99.90;;;;;;4156408;28;20095;-62
2021/04/06 08:34:30;;;;;;;17.80;9.93;;;7.70;99.90;;;;;;4156488;28;20083;-63
2021/04/06 08:36:31;;;;;;;20.40;10.87;;;7.70;99.90;;;;;;4155860;28;20060;-62
2021/04/06 08:38:32;;;;;;;17.37;10.20;;;7.70;99.90;;;;;;4156723;28;20424;-61
2021/04/06 08:40:44;;;;;;;18.37;10.60;;;7.80;99.90;;;;;;4156189;28;20021;-61
2021/04/06 08:42:47;;;;;;;18.73;10.90;;;7.80;99.90;;;;;;4156877;28;20481;-61
2021/04/06 08:44:55;;;;;;;17.67;9.70;;;7.90;99.90;;;;;;4156423;28;20509;-60
2021/04/06 08:46:56;;;;;;;19.00;10.87;;;8.10;99.90;;;;;;4157433;28;20034;-60
2021/04/06 08:48:57;;;;;;;21.07;11.80;;;8.20;99.90;;;;;;4156626;28;20035;-62
2021/04/06 08:50:59;;;;;;;21.73;10.40;;;8.20;99.90;;;;;;4156675;28;20034;-62
2021/04/06 08:53:00;;;;;;;15.90;9.93;;;8.20;99.90;;;;;;4155990;28;20053;-62
2021/04/06 08:55:09;;;;;;;20.67;10.40;;;8.20;99.90;;;;;;4157365;28;20103;-62
2021/04/06 08:57:11;;;;;;;18.93;9.93;;;8.20;99.70;;;;;;4155632;28;20080;-63
2021/04/06 08:59:23;;;;;;;20.43;10.67;;;8.20;99.40;;;;;;4156896;28;20129;-63
2021/04/06 09:01:24;;;;;;;15.37;9.07;;;8.20;99.30;;;;;;4155885;28;20041;-62
2021/04/06 09:03:25;;;;;;;16.57;9.47;;;8.20;99.10;;;;;;4158708;28;20844;-61
2021/04/06 09:05:29;;;;;;;19.17;9.73;;;8.40;98.70;;;;;;4155733;28;20041;-61
2021/04/06 09:07:34;;;;;;;16.70;9.77;;;8.40;98.40;;;;;;4156329;28;20037;-63
2021/04/06 09:09:35;;;;;;;18.43;10.50;;;8.50;98.20;;;;;;4156639;28;20536;-62
2021/04/06 09:11:38;;;;;;;20.57;9.47;;;8.60;98.10;;;;;;4156538;28;20045;-62
2021/04/06 09:13:40;;;;;;;17.00;9.90;;;8.70;97.90;;;;;;4172266;28;20089;-61
2021/04/06 09:15:46;;;;;;;20.63;9.60;;;8.70;97.50;;;;;;4172423;28;20091;-62
2021/04/06 09:17:47;;;;;;;16.50;10.03;;;8.80;97.10;;;;;;4172241;28;20041;-62
2021/04/06 09:19:49;;;;;;;15.37;10.33;;;8.80;96.90;;;;;;4172264;28;20126;-64
2021/04/06 09:21:56;;;;;;;23.53;10.13;;;8.90;97.00;;;;;;4172671;28;20037;-63
2021/04/06 09:24:01;;;;;;;20.93;10.27;;;8.90;96.10;;;;;;4172166;28;20094;-63
2021/04/06 09:26:12;;;;;;;24.93;11.27;;;8.90;96.10;;;;;;4172278;28;20033;-63
2021/04/06 09:28:14;;;;;;;19.92;10.30;;;8.90;96.20;;;;;;4172072;28;20045;-61
2021/04/06 09:30:15;;;;;;;19.03;10.27;;;8.90;95.50;;;;;;4172967;28;20431;-62
2021/04/06 09:32:20;;;;;;;18.57;9.67;;;8.90;95.20;;;;;;4171650;28;20083;-63
2021/04/06 09:34:36;;;;;;;25.37;10.57;;;8.90;94.90;;;;;;4173023;28;20103;-63
2021/04/06 09:36:38;;;;;;;26.70;9.90;;;9.00;94.60;;;;;;4172105;28;20033;-62
2021/04/06 09:38:40;;;;;;;23.17;10.40;;;9.00;94.50;;;;;;4172675;28;20091;-62
2021/04/06 09:40:42;;;;;;;23.50;10.17;;;9.10;94.30;;;;;;4171881;28;20053;-62
2021/04/06 09:42:43;;;;;;;24.80;9.17;;;9.10;94.20;;;;;;4172578;28;20083;-63
2021/04/06 09:44:46;;;;;;;18.97;9.33;;;9.30;94.40;;;;;;4171988;28;20082;-62
2021/04/06 09:46:53;;;;;;;17.70;10.10;;;9.40;94.00;;;;;;4157558;28;20030;-62
2021/04/06 09:48:54;;;;;;;24.13;9.93;;;9.50;93.70;;;;;;4139512;28;20080;-61
2021/04/06 09:51:02;;;;;;;22.37;10.67;;;9.60;93.50;;;;;;4139871;28;20042;-62
2021/04/06 09:53:18;;;;;;;23.23;10.17;;;9.60;93.40;;;;;;4139218;28;20046;-62
2021/04/06 09:55:23;;;;;;;23.47;11.13;;;9.50;93.00;;;;;;4152092;28;20454;-65
2021/04/06 09:57:26;;;;;;;17.77;10.90;;;9.60;93.30;;;;;;4154797;28;20064;-61
2021/04/06 09:59:28;;;;;;;21.20;11.83;;;9.70;93.40;;;;;;4155725;28;20119;-63
2021/04/06 10:01:30;;;;;;;24.30;11.77;;;9.80;93.30;;;;;;4154696;28;20037;-64
2021/04/06 10:03:48;;;;;;;23.60;12.40;;;9.90;93.00;;;;;;4155738;28;20836;-65
2021/04/06 10:06:05;;;;;;;24.27;12.60;;;9.90;92.30;;;;;;4155358;28;20486;-65
2021/04/06 10:08:06;;;;;;;27.80;13.53;;;9.80;92.00;;;;;;4155514;28;20021;-64
2021/04/06 10:10:22;;;;;;;33.33;12.10;;;9.80;92.30;;;;;;4155629;28;20034;-65
2021/04/06 10:12:25;;;;;;;23.67;10.67;;;9.80;92.10;;;;;;4155478;28;20528;-65
2021/04/06 10:14:27;;;;;;;27.73;10.80;;;9.70;92.40;;;;;;4155408;28;20025;-62
2021/04/06 10:16:33;;;;;;;26.03;11.60;;;9.80;92.30;;;;;;4154601;28;20100;-59
2021/04/06 10:18:40;;;;;;;28.83;11.57;;;9.80;91.80;;;;;;4161014;28;20049;-63
2021/04/06 10:20:47;;;;;;;33.37;13.43;;;9.80;91.90;;;;;;4160753;28;20071;-61
2021/04/06 10:22:56;;;;;;;24.97;12.73;;;9.80;91.50;;;;;;4160817;28;20103;-63
2021/04/06 10:25:00;;;;;;;25.37;11.63;;;9.80;91.30;;;;;;4160969;28;20041;-64
2021/04/06 10:27:10;;;;;;;20.57;10.50;;;9.80;91.00;;;;;;4160801;28;20757;-64
2021/04/06 10:29:12;;;;;;;18.83;10.40;;;9.80;90.70;;;;;;4160823;28;20025;-64
2021/04/06 10:31:15;;;;;;;21.03;10.57;;;9.90;90.70;;;;;;4147884;28;20033;-62
2021/04/06 10:33:18;;;;;;;27.40;10.47;;;9.90;90.70;;;;;;4164223;28;20163;-61
2021/04/06 10:35:28;;;;;;;30.37;13.33;;;10.10;90.70;;;;;;4164913;28;20493;-61
2021/04/06 10:37:53;;;;;;;29.63;11.95;;;10.20;90.20;;;;;;4160020;28;20095;-63
2021/04/06 10:39:54;;;;;;;21.87;11.13;;;10.20;90.40;;;;;;4160836;28;20154;-61
2021/04/06 10:41:56;;;;;;;23.37;10.47;;;10.20;90.50;;;;;;4160943;28;20037;-62
2021/04/06 10:43:57;;;;;;;23.60;10.17;;;10.30;90.30;;;;;;4160868;28;20139;-61
2021/04/06 10:46:16;;;;;;;21.50;10.43;;;10.40;90.00;;;;;;4160547;28;20067;-61
2021/04/06 10:48:22;;;;;;;16.67;8.80;;;10.50;88.70;;;;;;4168212;28;20585;-61
2021/04/06 10:50:31;;;;;;;21.33;10.97;;;10.60;88.40;;;;;;4175757;28;20045;-61
2021/04/06 10:52:35;;;;;;;16.10;9.30;;;10.70;87.50;;;;;;4177571;28;20095;-64